Talkeetna, AK (99676)

3:51 AM AKDT on April 25, 2017 (GMT -0800)
Talkeetna | | Change Station

Elev 358 ft 62.32 °N, 150.09 °W | Updated 58 minutes ago

Partly Cloudy
Partly Cloudy
41 °F
Feels Like 41 °F
N
0
Wind Variable Wind from North

Today
High -- | Low -- °F
--% Chance of Precip.
Yesterday
High -- | Low -- °F
Precip. -- in
Pressure 29.58 in
Visibility 3.0 miles
Clouds Few 3300 ft
Dew Point 41 °F
Humidity 100%
Rainfall 0.00 in
Snow Depth Not available.
6:02 AM 9:56 PM
Waning Crescent, 2% visible
METAR PATK 251053Z AUTO 00000KT 3SM BR FEW033 05/05 A2957 RMK SLP016 T00500050 TSNO VIA AUTODIAL
Pressure 29.58 in
Visibility 3.0 miles
Clouds Few 3300 ft
Dew Point 41 °F
Humidity 100%
Rainfall 0.00 in
Snow Depth Not available.
6:02 AM 9:56 PM
Waning Crescent, 2% visible
METAR PATK 251053Z AUTO 00000KT 3SM BR FEW033 05/05 A2957 RMK SLP016 T00500050 TSNO VIA AUTODIAL

Get Severe Weather Alerts

Thanks for signing up!

Be on the lookout for a verification email in your inbox.

You'll start receiving the daily forecast at 8 AM.

×

10-Day Weather Forecast

Almanac

Astronomy

Apr. 25, 2017 Rise Set
Actual Time
Civil Twilight
Nautical Twilight
Astronomical Twilight
Moon
Length of Visible Light
Length of Day
Tomorrow will be .
, % of the Moon is Illuminated

Today's Extremes

State Highs State Lows

Community

WunderPhotos

WunderBlog® & News

Nearby

Air Quality

  Air Quality AQ Index Pollutant
Not available.

Snow Depth

Station Depth Elevation

Earthquake Activity

City Distance Mag. Time & Date
Minimum magnitude displayed is 2.5.

Coastal Water Temperatures

Place Temperature

Stations

Nearby Weather Stations

Station Location Temp. Windchill Dew Point Humidity Wind Precip. Elev Updated Type
                   

Watches & Warnings

There are currently no watches in effect.